sensor_id;sensor_type;location;lat;lon;timestamp;pressure;altitude;pressure_sealevel;temperature;humidity
72558;BME280;60583;50.094;8.748;2023-04-29T00:00:33;100131.66;;;12.57;92.01
72558;BME280;60583;50.094;8.748;2023-04-29T00:02:58;100135.34;;;12.56;92.71
72558;BME280;60583;50.094;8.748;2023-04-29T00:05:25;100129.41;;;12.54;93.79
72558;BME280;60583;50.094;8.748;2023-04-29T00:07:51;100129.69;;;12.71;92.10
72558;BME280;60583;50.094;8.748;2023-04-29T00:10:16;100120.34;;;12.80;90.24
72558;BME280;60583;50.094;8.748;2023-04-29T00:12:42;100124.91;;;12.98;89.11
72558;BME280;60583;50.094;8.748;2023-04-29T00:15:07;100118.31;;;13.00;88.22
72558;BME280;60583;50.094;8.748;2023-04-29T00:17:33;100123.22;;;13.03;87.96
72558;BME280;60583;50.094;8.748;2023-04-29T00:19:59;100112.97;;;13.00;87.92
72558;BME280;60583;50.094;8.748;2023-04-29T00:22:24;100133.69;;;13.11;87.48
72558;BME280;60583;50.094;8.748;2023-04-29T00:24:49;100140.91;;;13.29;86.47
72558;BME280;60583;50.094;8.748;2023-04-29T00:27:15;100137.84;;;13.25;86.76
72558;BME280;60583;50.094;8.748;2023-04-29T00:29:42;100136.28;;;13.18;87.29
72558;BME280;60583;50.094;8.748;2023-04-29T00:32:07;100124.00;;;13.10;87.46
72558;BME280;60583;50.094;8.748;2023-04-29T00:34:33;100131.81;;;13.12;88.09
72558;BME280;60583;50.094;8.748;2023-04-29T00:36:58;100126.09;;;13.02;89.32
72558;BME280;60583;50.094;8.748;2023-04-29T00:39:24;100116.97;;;12.91;89.82
72558;BME280;60583;50.094;8.748;2023-04-29T00:41:50;100135.84;;;12.96;89.86
72558;BME280;60583;50.094;8.748;2023-04-29T00:44:16;100139.41;;;12.90;90.40
72558;BME280;60583;50.094;8.748;2023-04-29T00:46:41;100128.44;;;12.73;90.77
72558;BME280;60583;50.094;8.748;2023-04-29T00:49:07;100130.72;;;12.70;89.61
72558;BME280;60583;50.094;8.748;2023-04-29T00:51:35;100138.25;;;12.79;89.00
72558;BME280;60583;50.094;8.748;2023-04-29T00:54:02;100129.47;;;12.72;89.25
72558;BME280;60583;50.094;8.748;2023-04-29T00:56:30;100138.31;;;12.73;90.58
72558;BME280;60583;50.094;8.748;2023-04-29T00:58:58;100131.00;;;12.62;89.90
72558;BME280;60583;50.094;8.748;2023-04-29T01:01:24;100130.97;;;12.68;89.87
72558;BME280;60583;50.094;8.748;2023-04-29T01:03:49;100115.75;;;12.62;89.62
72558;BME280;60583;50.094;8.748;2023-04-29T01:06:45;100138.84;;;12.81;89.45
72558;BME280;60583;50.094;8.748;2023-04-29T01:09:36;100127.22;;;12.69;89.09
72558;BME280;60583;50.094;8.748;2023-04-29T01:12:10;100154.03;;;12.88;88.91
72558;BME280;60583;50.094;8.748;2023-04-29T01:14:42;100125.78;;;12.73;89.26
72558;BME280;60583;50.094;8.748;2023-04-29T01:17:17;100122.63;;;12.76;88.56
72558;BME280;60583;50.094;8.748;2023-04-29T01:19:47;100100.97;;;12.60;88.65
72558;BME280;60583;50.094;8.748;2023-04-29T01:22:13;100141.31;;;12.83;88.19
72558;BME280;60583;50.094;8.748;2023-04-29T01:24:39;100130.63;;;12.83;88.50
72558;BME280;60583;50.094;8.748;2023-04-29T01:27:30;100146.75;;;12.95;88.00
72558;BME280;60583;50.094;8.748;2023-04-29T01:32:52;100152.66;;;13.03;86.75
72558;BME280;60583;50.094;8.748;2023-04-29T01:35:39;100145.47;;;13.04;87.25
72558;BME280;60583;50.094;8.748;2023-04-29T01:43:33;100145.31;;;12.99;86.85
72558;BME280;60583;50.094;8.748;2023-04-29T01:46:01;100144.31;;;12.93;86.88
72558;BME280;60583;50.094;8.748;2023-04-29T01:48:28;100161.97;;;13.01;87.77
72558;BME280;60583;50.094;8.748;2023-04-29T01:50:54;100146.94;;;13.00;87.59
72558;BME280;60583;50.094;8.748;2023-04-29T01:53:19;100141.81;;;12.98;87.11
72558;BME280;60583;50.094;8.748;2023-04-29T01:55:45;100138.91;;;13.00;87.02
72558;BME280;60583;50.094;8.748;2023-04-29T01:58:10;100157.38;;;13.08;86.26
72558;BME280;60583;50.094;8.748;2023-04-29T02:00:35;100140.13;;;13.04;86.42
72558;BME280;60583;50.094;8.748;2023-04-29T02:03:02;100147.88;;;13.12;86.29
72558;BME280;60583;50.094;8.748;2023-04-29T02:05:28;100165.56;;;13.13;86.02
72558;BME280;60583;50.094;8.748;2023-04-29T02:07:58;100147.88;;;13.12;85.51
72558;BME280;60583;50.094;8.748;2023-04-29T02:10:23;100151.59;;;13.11;85.22
72558;BME280;60583;50.094;8.748;2023-04-29T02:12:48;100142.63;;;12.99;85.46
72558;BME280;60583;50.094;8.748;2023-04-29T02:15:14;100140.00;;;12.92;86.59
72558;BME280;60583;50.094;8.748;2023-04-29T02:17:39;100153.19;;;12.94;86.44
72558;BME280;60583;50.094;8.748;2023-04-29T02:20:06;100132.47;;;12.82;86.38
72558;BME280;60583;50.094;8.748;2023-04-29T02:22:31;100157.03;;;12.98;86.71
72558;BME280;60583;50.094;8.748;2023-04-29T02:24:57;100138.81;;;12.88;85.94
72558;BME280;60583;50.094;8.748;2023-04-29T02:27:22;100173.69;;;13.00;86.39
72558;BME280;60583;50.094;8.748;2023-04-29T02:29:48;100177.59;;;13.04;86.24
72558;BME280;60583;50.094;8.748;2023-04-29T02:32:14;100157.16;;;12.85;86.94
72558;BME280;60583;50.094;8.748;2023-04-29T02:34:40;100181.81;;;12.87;87.58
72558;BME280;60583;50.094;8.748;2023-04-29T02:37:05;100167.53;;;12.74;88.13
72558;BME280;60583;50.094;8.748;2023-04-29T02:39:31;100168.13;;;12.76;87.74
72558;BME280;60583;50.094;8.748;2023-04-29T02:41:56;100181.66;;;12.81;87.99
72558;BME280;60583;50.094;8.748;2023-04-29T02:44:22;100167.31;;;12.76;87.51
72558;BME280;60583;50.094;8.748;2023-04-29T02:46:48;100179.81;;;12.82;88.07
72558;BME280;60583;50.094;8.748;2023-04-29T02:49:13;100155.22;;;12.67;88.00
72558;BME280;60583;50.094;8.748;2023-04-29T02:51:39;100183.47;;;12.88;87.78
72558;BME280;60583;50.094;8.748;2023-04-29T02:54:05;100185.13;;;12.89;88.69
72558;BME280;60583;50.094;8.748;2023-04-29T02:56:31;100189.25;;;12.85;88.49
72558;BME280;60583;50.094;8.748;2023-04-29T02:58:56;100185.56;;;12.86;88.74
72558;BME280;60583;50.094;8.748;2023-04-29T03:01:22;100183.91;;;12.85;89.02
72558;BME280;60583;50.094;8.748;2023-04-29T03:03:48;100183.97;;;12.78;89.69
72558;BME280;60583;50.094;8.748;2023-04-29T03:06:13;100153.63;;;12.66;89.01
72558;BME280;60583;50.094;8.748;2023-04-29T03:08:40;100191.94;;;12.85;88.95
72558;BME280;60583;50.094;8.748;2023-04-29T03:11:05;100165.75;;;12.68;89.47
72558;BME280;60583;50.094;8.748;2023-04-29T03:13:31;100190.91;;;12.86;88.84
72558;BME280;60583;50.094;8.748;2023-04-29T03:15:56;100170.78;;;12.76;88.64
72558;BME280;60583;50.094;8.748;2023-04-29T03:18:23;100187.19;;;12.87;88.77
72558;BME280;60583;50.094;8.748;2023-04-29T03:20:49;100186.59;;;12.85;88.69
72558;BME280;60583;50.094;8.748;2023-04-29T03:23:14;100192.53;;;12.87;88.17
72558;BME280;60583;50.094;8.748;2023-04-29T03:25:40;100161.16;;;12.75;88.10
72558;BME280;60583;50.094;8.748;2023-04-29T03:28:05;100184.06;;;12.90;87.91
72558;BME280;60583;50.094;8.748;2023-04-29T03:30:32;100186.59;;;12.85;87.81
72558;BME280;60583;50.094;8.748;2023-04-29T03:32:57;100186.75;;;12.90;88.08
72558;BME280;60583;50.094;8.748;2023-04-29T03:35:22;100182.06;;;12.85;86.45
72558;BME280;60583;50.094;8.748;2023-04-29T03:37:48;100186.72;;;12.96;86.54
72558;BME280;60583;50.094;8.748;2023-04-29T03:40:16;100176.03;;;12.90;87.19
72558;BME280;60583;50.094;8.748;2023-04-29T03:42:41;100180.53;;;12.96;86.75
72558;BME280;60583;50.094;8.748;2023-04-29T03:45:07;100196.59;;;12.96;87.00
72558;BME280;60583;50.094;8.748;2023-04-29T03:47:33;100191.50;;;12.88;86.09
72558;BME280;60583;50.094;8.748;2023-04-29T03:49:58;100169.78;;;12.77;85.83
72558;BME280;60583;50.094;8.748;2023-04-29T03:52:23;100167.53;;;12.74;85.83
72558;BME280;60583;50.094;8.748;2023-04-29T03:54:49;100190.09;;;12.85;85.52
72558;BME280;60583;50.094;8.748;2023-04-29T03:57:15;100207.72;;;12.93;85.61
72558;BME280;60583;50.094;8.748;2023-04-29T03:59:40;100205.22;;;12.98;86.18
72558;BME280;60583;50.094;8.748;2023-04-29T04:02:06;100205.63;;;13.01;85.59
72558;BME280;60583;50.094;8.748;2023-04-29T04:04:31;100171.25;;;12.73;86.03
72558;BME280;60583;50.094;8.748;2023-04-29T04:06:57;100215.25;;;13.02;85.78
72558;BME280;60583;50.094;8.748;2023-04-29T04:09:22;100202.38;;;12.93;85.52
72558;BME280;60583;50.094;8.748;2023-04-29T04:11:47;100228.44;;;13.04;85.09
72558;BME280;60583;50.094;8.748;2023-04-29T04:14:13;100223.72;;;12.99;84.80
72558;BME280;60583;50.094;8.748;2023-04-29T04:16:38;100224.97;;;12.97;85.03
72558;BME280;60583;50.094;8.748;2023-04-29T04:19:03;100223.78;;;12.93;85.39
72558;BME280;60583;50.094;8.748;2023-04-29T04:21:29;100210.66;;;12.85;85.08
72558;BME280;60583;50.094;8.748;2023-04-29T04:23:55;100244.19;;;12.94;85.10
72558;BME280;60583;50.094;8.748;2023-04-29T04:26:21;100217.59;;;12.67;84.50
72558;BME280;60583;50.094;8.748;2023-04-29T04:28:47;100253.50;;;12.85;84.57
72558;BME280;60583;50.094;8.748;2023-04-29T04:31:12;100245.28;;;12.79;84.34
72558;BME280;60583;50.094;8.748;2023-04-29T04:33:39;100265.66;;;12.80;83.86
72558;BME280;60583;50.094;8.748;2023-04-29T04:36:05;100248.22;;;12.71;83.30
72558;BME280;60583;50.094;8.748;2023-04-29T04:38:31;100256.03;;;12.73;82.94
72558;BME280;60583;50.094;8.748;2023-04-29T04:40:57;100239.59;;;12.69;82.92
72558;BME280;60583;50.094;8.748;2023-04-29T04:43:22;100214.22;;;12.47;82.82
72558;BME280;60583;50.094;8.748;2023-04-29T04:45:48;100260.97;;;12.76;82.52
72558;BME280;60583;50.094;8.748;2023-04-29T04:48:13;100248.50;;;12.63;82.10
72558;BME280;60583;50.094;8.748;2023-04-29T04:50:39;100270.84;;;12.75;83.46
72558;BME280;60583;50.094;8.748;2023-04-29T04:53:04;100270.44;;;12.78;82.77
72558;BME280;60583;50.094;8.748;2023-04-29T04:55:30;100259.75;;;12.72;82.25
72558;BME280;60583;50.094;8.748;2023-04-29T04:57:57;100272.47;;;12.76;81.45
72558;BME280;60583;50.094;8.748;2023-04-29T05:00:23;100244.22;;;12.56;80.98
72558;BME280;60583;50.094;8.748;2023-04-29T05:02:48;100255.28;;;12.59;79.95
72558;BME280;60583;50.094;8.748;2023-04-29T05:05:16;100283.22;;;12.70;80.13
72558;BME280;60583;50.094;8.748;2023-04-29T05:07:42;100287.75;;;12.69;80.02
72558;BME280;60583;50.094;8.748;2023-04-29T05:10:08;100281.97;;;12.72;79.23
72558;BME280;60583;50.094;8.748;2023-04-29T05:12:34;100256.94;;;12.60;79.72
72558;BME280;60583;50.094;8.748;2023-04-29T05:15:00;100270.31;;;12.60;79.73
72558;BME280;60583;50.094;8.748;2023-04-29T05:17:26;100273.16;;;12.65;79.12
72558;BME280;60583;50.094;8.748;2023-04-29T05:19:51;100292.63;;;12.79;79.70
72558;BME280;60583;50.094;8.748;2023-04-29T05:22:17;100280.31;;;12.78;79.02
72558;BME280;60583;50.094;8.748;2023-04-29T05:24:42;100279.13;;;12.67;78.25
72558;BME280;60583;50.094;8.748;2023-04-29T05:27:07;100277.66;;;12.71;77.65
72558;BME280;60583;50.094;8.748;2023-04-29T05:29:33;100303.66;;;12.96;77.20
72558;BME280;60583;50.094;8.748;2023-04-29T05:31:58;100308.59;;;12.99;77.57
72558;BME280;60583;50.094;8.748;2023-04-29T05:34:24;100286.78;;;12.95;75.72
72558;BME280;60583;50.094;8.748;2023-04-29T05:36:49;100292.69;;;13.04;75.40
72558;BME280;60583;50.094;8.748;2023-04-29T05:39:15;100294.50;;;13.16;75.65
72558;BME280;60583;50.094;8.748;2023-04-29T05:41:42;100312.91;;;13.31;75.03
72558;BME280;60583;50.094;8.748;2023-04-29T05:44:07;100318.63;;;13.34;73.45
72558;BME280;60583;50.094;8.748;2023-04-29T05:46:33;100329.25;;;13.48;73.27
72558;BME280;60583;50.094;8.748;2023-04-29T05:48:58;100321.34;;;13.59;73.38
72558;BME280;60583;50.094;8.748;2023-04-29T05:51:23;100320.84;;;13.69;72.52
72558;BME280;60583;50.094;8.748;2023-04-29T05:53:49;100334.75;;;13.77;72.14
72558;BME280;60583;50.094;8.748;2023-04-29T05:56:14;100354.13;;;13.79;72.52
72558;BME280;60583;50.094;8.748;2023-04-29T05:58:41;100348.00;;;13.72;72.83
72558;BME280;60583;50.094;8.748;2023-04-29T06:01:06;100345.88;;;13.56;71.17
72558;BME280;60583;50.094;8.748;2023-04-29T06:03:31;100358.03;;;13.59;71.93
72558;BME280;60583;50.094;8.748;2023-04-29T06:05:57;100354.34;;;13.53;71.00
72558;BME280;60583;50.094;8.748;2023-04-29T06:08:23;100365.50;;;13.75;70.17
72558;BME280;60583;50.094;8.748;2023-04-29T06:10:48;100357.78;;;13.85;70.44
72558;BME280;60583;50.094;8.748;2023-04-29T06:13:16;100335.97;;;13.81;69.81
72558;BME280;60583;50.094;8.748;2023-04-29T06:15:41;100365.97;;;13.90;69.23
72558;BME280;60583;50.094;8.748;2023-04-29T06:18:07;100359.34;;;13.74;68.75
72558;BME280;60583;50.094;8.748;2023-04-29T06:20:32;100375.78;;;13.78;69.08
72558;BME280;60583;50.094;8.748;2023-04-29T06:22:58;100368.28;;;13.86;68.67
72558;BME280;60583;50.094;8.748;2023-04-29T06:25:23;100331.75;;;13.67;68.11
72558;BME280;60583;50.094;8.748;2023-04-29T06:27:49;100374.56;;;13.98;68.26
72558;BME280;60583;50.094;8.748;2023-04-29T06:30:14;100388.56;;;14.00;67.45
72558;BME280;60583;50.094;8.748;2023-04-29T06:32:41;100398.84;;;14.03;68.11
72558;BME280;60583;50.094;8.748;2023-04-29T06:35:07;100391.53;;;13.92;66.99
72558;BME280;60583;50.094;8.748;2023-04-29T06:37:33;100396.41;;;13.77;66.26
72558;BME280;60583;50.094;8.748;2023-04-29T06:39:58;100397.72;;;13.68;67.01
72558;BME280;60583;50.094;8.748;2023-04-29T06:42:24;100412.72;;;13.76;66.82
72558;BME280;60583;50.094;8.748;2023-04-29T06:44:49;100402.41;;;13.73;67.76
72558;BME280;60583;50.094;8.748;2023-04-29T06:47:15;100409.63;;;13.72;67.93
72558;BME280;60583;50.094;8.748;2023-04-29T06:49:40;100400.41;;;13.68;67.64
72558;BME280;60583;50.094;8.748;2023-04-29T06:52:08;100405.44;;;13.58;67.65
72558;BME280;60583;50.094;8.748;2023-04-29T06:54:33;100374.13;;;13.52;68.46
72558;BME280;60583;50.094;8.748;2023-04-29T06:56:58;100426.09;;;13.76;67.97
72558;BME280;60583;50.094;8.748;2023-04-29T06:59:24;100421.94;;;13.80;67.71
72558;BME280;60583;50.094;8.748;2023-04-29T07:01:49;100424.63;;;13.80;67.51
72558;BME280;60583;50.094;8.748;2023-04-29T07:04:16;100432.03;;;13.84;67.50
72558;BME280;60583;50.094;8.748;2023-04-29T07:06:41;100438.03;;;13.80;66.91
72558;BME280;60583;50.094;8.748;2023-04-29T07:09:11;100422.69;;;13.62;67.04
72558;BME280;60583;50.094;8.748;2023-04-29T07:11:38;100418.31;;;13.74;67.26
72558;BME280;60583;50.094;8.748;2023-04-29T07:14:03;100433.28;;;13.82;67.30
72558;BME280;60583;50.094;8.748;2023-04-29T07:16:29;100430.81;;;13.80;67.39
72558;BME280;60583;50.094;8.748;2023-04-29T07:18:54;100436.16;;;13.80;67.21
72558;BME280;60583;50.094;8.748;2023-04-29T07:21:19;100446.13;;;13.73;67.23
72558;BME280;60583;50.094;8.748;2023-04-29T07:23:45;100433.59;;;13.67;66.47
72558;BME280;60583;50.094;8.748;2023-04-29T07:26:15;100460.28;;;13.80;66.95
72558;BME280;60583;50.094;8.748;2023-04-29T07:28:41;100452.25;;;13.80;67.22
72558;BME280;60583;50.094;8.748;2023-04-29T07:31:08;100438.31;;;13.72;66.76
72558;BME280;60583;50.094;8.748;2023-04-29T07:33:34;100460.78;;;13.95;67.33
72558;BME280;60583;50.094;8.748;2023-04-29T07:36:00;100447.28;;;13.84;67.18
72558;BME280;60583;50.094;8.748;2023-04-29T07:38:26;100462.13;;;13.86;66.65
72558;BME280;60583;50.094;8.748;2023-04-29T07:40:51;100470.34;;;13.85;67.39
72558;BME280;60583;50.094;8.748;2023-04-29T07:43:17;100484.59;;;13.85;67.39
72558;BME280;60583;50.094;8.748;2023-04-29T07:45:43;100481.47;;;13.88;67.33
72558;BME280;60583;50.094;8.748;2023-04-29T07:48:08;100490.94;;;13.91;67.64
72558;BME280;60583;50.094;8.748;2023-04-29T07:50:34;100490.72;;;13.92;67.20
72558;BME280;60583;50.094;8.748;2023-04-29T07:53:03;100483.13;;;13.89;67.31
72558;BME280;60583;50.094;8.748;2023-04-29T07:55:28;100491.13;;;13.96;67.23
72558;BME280;60583;50.094;8.748;2023-04-29T07:57:55;100503.69;;;13.95;67.95
72558;BME280;60583;50.094;8.748;2023-04-29T08:00:21;100491.94;;;13.96;68.93
72558;BME280;60583;50.094;8.748;2023-04-29T08:02:50;100498.34;;;13.95;68.43
72558;BME280;60583;50.094;8.748;2023-04-29T08:05:16;100457.16;;;13.59;68.88
72558;BME280;60583;50.094;8.748;2023-04-29T08:07:42;100507.94;;;13.78;69.57
72558;BME280;60583;50.094;8.748;2023-04-29T08:10:08;100518.75;;;13.65;69.93
72558;BME280;60583;50.094;8.748;2023-04-29T08:12:34;100513.91;;;13.80;71.40
72558;BME280;60583;50.094;8.748;2023-04-29T08:14:59;100521.00;;;13.68;72.05
72558;BME280;60583;50.094;8.748;2023-04-29T08:17:24;100492.88;;;13.46;72.21
72558;BME280;60583;50.094;8.748;2023-04-29T08:19:50;100522.47;;;13.64;72.88
72558;BME280;60583;50.094;8.748;2023-04-29T08:22:15;100528.63;;;13.65;73.93
72558;BME280;60583;50.094;8.748;2023-04-29T08:24:41;100516.22;;;13.70;73.52
72558;BME280;60583;50.094;8.748;2023-04-29T08:27:07;100511.53;;;13.66;73.11
72558;BME280;60583;50.094;8.748;2023-04-29T08:29:33;100521.56;;;13.77;72.48
72558;BME280;60583;50.094;8.748;2023-04-29T08:31:59;100535.94;;;13.82;71.85
72558;BME280;60583;50.094;8.748;2023-04-29T08:34:24;100523.66;;;13.68;71.77
72558;BME280;60583;50.094;8.748;2023-04-29T08:36:51;100522.25;;;13.66;71.31
72558;BME280;60583;50.094;8.748;2023-04-29T08:39:16;100538.44;;;13.84;70.82
72558;BME280;60583;50.094;8.748;2023-04-29T08:41:42;100535.94;;;13.82;70.94
72558;BME280;60583;50.094;8.748;2023-04-29T08:44:13;100545.81;;;13.88;71.13
72558;BME280;60583;50.094;8.748;2023-04-29T08:46:43;100542.97;;;13.83;70.90
72558;BME280;60583;50.094;8.748;2023-04-29T08:49:10;100544.13;;;13.94;71.18
72558;BME280;60583;50.094;8.748;2023-04-29T08:51:35;100541.66;;;13.92;70.95
72558;BME280;60583;50.094;8.748;2023-04-29T08:54:01;100556.28;;;13.96;71.67
72558;BME280;60583;50.094;8.748;2023-04-29T08:56:27;100547.81;;;13.99;70.27
72558;BME280;60583;50.094;8.748;2023-04-29T08:58:56;100547.00;;;13.99;70.35
72558;BME280;60583;50.094;8.748;2023-04-29T09:01:25;100559.69;;;14.10;70.40
72558;BME280;60583;50.094;8.748;2023-04-29T09:04:12;100563.03;;;14.05;69.51
72558;BME280;60583;50.094;8.748;2023-04-29T09:06:40;100542.81;;;14.03;69.97
72558;BME280;60583;50.094;8.748;2023-04-29T09:09:06;100535.19;;;14.06;70.15
72558;BME280;60583;50.094;8.748;2023-04-29T09:11:32;100564.28;;;14.28;70.54
72558;BME280;60583;50.094;8.748;2023-04-29T09:14:00;100561.13;;;14.44;69.94
72558;BME280;60583;50.094;8.748;2023-04-29T09:16:29;100545.13;;;14.31;69.41
72558;BME280;60583;50.094;8.748;2023-04-29T09:18:55;100566.41;;;14.50;68.87
72558;BME280;60583;50.094;8.748;2023-04-29T09:21:26;100522.63;;;14.32;69.08
72558;BME280;60583;50.094;8.748;2023-04-29T09:23:56;100548.69;;;14.49;69.51
72558;BME280;60583;50.094;8.748;2023-04-29T09:26:22;100577.47;;;14.60;68.18
72558;BME280;60583;50.094;8.748;2023-04-29T09:29:09;100575.09;;;14.52;68.22
72558;BME280;60583;50.094;8.748;2023-04-29T09:31:37;100583.34;;;14.51;68.82
72558;BME280;60583;50.094;8.748;2023-04-29T09:34:03;100571.34;;;14.53;68.97
72558;BME280;60583;50.094;8.748;2023-04-29T09:39:05;100587.25;;;14.55;68.69
72558;BME280;60583;50.094;8.748;2023-04-29T09:41:35;100583.75;;;14.54;68.48
72558;BME280;60583;50.094;8.748;2023-04-29T09:44:04;100589.16;;;14.48;69.58
72558;BME280;60583;50.094;8.748;2023-04-29T09:46:33;100586.91;;;14.45;68.78
72558;BME280;60583;50.094;8.748;2023-04-29T09:48:59;100588.03;;;14.31;68.90
72558;BME280;60583;50.094;8.748;2023-04-29T09:51:25;100588.78;;;14.44;68.60
72558;BME280;60583;50.094;8.748;2023-04-29T09:53:50;100589.97;;;14.48;68.94
72558;BME280;60583;50.094;8.748;2023-04-29T09:56:16;100579.34;;;14.35;69.18
72558;BME280;60583;50.094;8.748;2023-04-29T09:58:41;100569.66;;;14.28;69.71
72558;BME280;60583;50.094;8.748;2023-04-29T10:01:07;100595.41;;;14.42;70.47
72558;BME280;60583;50.094;8.748;2023-04-29T10:03:35;100559.22;;;14.20;69.80
72558;BME280;60583;50.094;8.748;2023-04-29T10:06:02;100585.16;;;14.26;70.04
72558;BME280;60583;50.094;8.748;2023-04-29T10:08:28;100593.00;;;14.27;69.83
72558;BME280;60583;50.094;8.748;2023-04-29T10:10:59;100598.38;;;14.27;69.61
72558;BME280;60583;50.094;8.748;2023-04-29T10:13:26;100611.16;;;14.32;70.14
72558;BME280;60583;50.094;8.748;2023-04-29T10:18:40;100598.03;;;14.17;70.20
72558;BME280;60583;50.094;8.748;2023-04-29T10:21:07;100584.66;;;14.11;70.20
72558;BME280;60583;50.094;8.748;2023-04-29T10:23:35;100609.91;;;14.28;70.65
72558;BME280;60583;50.094;8.748;2023-04-29T10:26:01;100612.00;;;14.26;71.77
72558;BME280;60583;50.094;8.748;2023-04-29T10:28:30;100607.84;;;13.98;71.51
72558;BME280;60583;50.094;8.748;2023-04-29T10:30:58;100609.13;;;13.89;72.60
72558;BME280;60583;50.094;8.748;2023-04-29T10:33:28;100582.22;;;13.65;72.44
72558;BME280;60583;50.094;8.748;2023-04-29T10:35:55;100607.31;;;13.83;72.96
72558;BME280;60583;50.094;8.748;2023-04-29T10:38:31;100606.81;;;13.93;72.47
72558;BME280;60583;50.094;8.748;2023-04-29T10:41:02;100614.84;;;13.99;72.36
72558;BME280;60583;50.094;8.748;2023-04-29T10:43:28;100607.19;;;14.03;72.09
72558;BME280;60583;50.094;8.748;2023-04-29T10:48:45;100611.53;;;14.04;72.07
72558;BME280;60583;50.094;8.748;2023-04-29T10:51:10;100575.53;;;13.87;71.17
72558;BME280;60583;50.094;8.748;2023-04-29T10:53:59;100619.91;;;14.14;70.50
72558;BME280;60583;50.094;8.748;2023-04-29T10:56:48;100617.59;;;14.24;70.32
72558;BME280;60583;50.094;8.748;2023-04-29T11:01:52;100614.94;;;14.49;67.21
72558;BME280;60583;50.094;8.748;2023-04-29T11:04:19;100620.19;;;15.66;64.56
72558;BME280;60583;50.094;8.748;2023-04-29T11:06:52;100606.03;;;17.29;61.13
72558;BME280;60583;50.094;8.748;2023-04-29T11:12:02;100605.00;;;19.91;54.65
72558;BME280;60583;50.094;8.748;2023-04-29T11:16:57;100610.75;;;19.13;52.36
72558;BME280;60583;50.094;8.748;2023-04-29T11:19:25;100608.00;;;19.30;52.46
72558;BME280;60583;50.094;8.748;2023-04-29T11:24:36;100571.78;;;18.26;53.51
72558;BME280;60583;50.094;8.748;2023-04-29T11:27:02;100585.75;;;18.23;54.77
72558;BME280;60583;50.094;8.748;2023-04-29T11:29:31;100580.72;;;18.43;54.61
72558;BME280;60583;50.094;8.748;2023-04-29T11:32:03;100597.66;;;18.22;54.63
72558;BME280;60583;50.094;8.748;2023-04-29T11:34:28;100596.56;;;18.23;54.86
72558;BME280;60583;50.094;8.748;2023-04-29T11:36:54;100593.94;;;18.28;54.41
72558;BME280;60583;50.094;8.748;2023-04-29T11:39:19;100602.72;;;17.90;53.83
72558;BME280;60583;50.094;8.748;2023-04-29T11:41:45;100588.44;;;17.38;55.30
72558;BME280;60583;50.094;8.748;2023-04-29T11:44:10;100581.44;;;17.14;56.43
72558;BME280;60583;50.094;8.748;2023-04-29T11:46:36;100588.78;;;17.30;56.56
72558;BME280;60583;50.094;8.748;2023-04-29T11:49:01;100584.44;;;17.80;56.44
72558;BME280;60583;50.094;8.748;2023-04-29T11:51:27;100596.88;;;18.10;54.54
72558;BME280;60583;50.094;8.748;2023-04-29T11:53:53;100603.97;;;18.27;53.75
72558;BME280;60583;50.094;8.748;2023-04-29T11:56:22;100593.38;;;18.26;54.07
72558;BME280;60583;50.094;8.748;2023-04-29T11:58:54;100608.81;;;18.14;54.11
72558;BME280;60583;50.094;8.748;2023-04-29T12:01:20;100607.09;;;18.08;54.00
72558;BME280;60583;50.094;8.748;2023-04-29T12:03:48;100605.75;;;18.22;54.74
72558;BME280;60583;50.094;8.748;2023-04-29T12:06:14;100580.63;;;17.93;55.22
72558;BME280;60583;50.094;8.748;2023-04-29T12:08:39;100587.69;;;17.66;55.39
72558;BME280;60583;50.094;8.748;2023-04-29T12:11:06;100612.34;;;17.46;54.94
72558;BME280;60583;50.094;8.748;2023-04-29T12:13:32;100611.53;;;17.34;57.15
72558;BME280;60583;50.094;8.748;2023-04-29T12:16:01;100614.38;;;17.16;56.61
72558;BME280;60583;50.094;8.748;2023-04-29T12:18:27;100598.66;;;16.90;57.24
72558;BME280;60583;50.094;8.748;2023-04-29T12:20:53;100584.84;;;16.63;57.29
72558;BME280;60583;50.094;8.748;2023-04-29T12:23:22;100608.63;;;17.01;57.92
72558;BME280;60583;50.094;8.748;2023-04-29T12:25:49;100585.34;;;16.83;58.01
72558;BME280;60583;50.094;8.748;2023-04-29T12:28:16;100598.34;;;16.86;58.46
72558;BME280;60583;50.094;8.748;2023-04-29T12:30:46;100611.44;;;16.83;57.68
72558;BME280;60583;50.094;8.748;2023-04-29T12:33:25;100603.91;;;16.62;59.24
72558;BME280;60583;50.094;8.748;2023-04-29T12:35:55;100614.94;;;16.60;58.32
72558;BME280;60583;50.094;8.748;2023-04-29T12:38:23;100613.91;;;16.61;58.99
72558;BME280;60583;50.094;8.748;2023-04-29T12:40:48;100615.09;;;16.47;58.66
72558;BME280;60583;50.094;8.748;2023-04-29T12:43:15;100615.66;;;16.26;59.14
72558;BME280;60583;50.094;8.748;2023-04-29T12:45:41;100583.38;;;15.96;59.68
72558;BME280;60583;50.094;8.748;2023-04-29T12:48:07;100606.22;;;16.05;60.94
72558;BME280;60583;50.094;8.748;2023-04-29T12:50:38;100605.38;;;15.93;61.37
72558;BME280;60583;50.094;8.748;2023-04-29T12:53:04;100607.16;;;15.81;62.30
72558;BME280;60583;50.094;8.748;2023-04-29T12:55:35;100626.78;;;15.70;61.40
72558;BME280;60583;50.094;8.748;2023-04-29T12:58:04;100615.00;;;15.53;61.78
72558;BME280;60583;50.094;8.748;2023-04-29T13:00:30;100624.91;;;15.52;61.80
72558;BME280;60583;50.094;8.748;2023-04-29T13:02:56;100632.84;;;15.65;61.63
72558;BME280;60583;50.094;8.748;2023-04-29T13:05:21;100629.59;;;15.75;62.51
72558;BME280;60583;50.094;8.748;2023-04-29T13:07:48;100607.22;;;15.63;62.88
72558;BME280;60583;50.094;8.748;2023-04-29T13:10:13;100630.50;;;15.69;63.39
72558;BME280;60583;50.094;8.748;2023-04-29T13:12:39;100598.69;;;15.29;62.95
72558;BME280;60583;50.094;8.748;2023-04-29T13:15:05;100635.28;;;15.49;62.35